sensor_id;sensor_type;location;lat;lon;timestamp;pressure;altitude;pressure_sealevel;temperature
68012;BMP180;54794;48.348;7.878;2022-09-11T00:01:31;99282.00;;;20.90
68012;BMP180;54794;48.348;7.878;2022-09-11T00:04:00;99269.00;;;20.90
68012;BMP180;54794;48.348;7.878;2022-09-11T00:06:27;99263.00;;;20.90
68012;BMP180;54794;48.348;7.878;2022-09-11T00:09:03;99276.00;;;20.90
68012;BMP180;54794;48.348;7.878;2022-09-11T00:11:37;99282.00;;;20.90
68012;BMP180;54794;48.348;7.878;2022-09-11T00:14:07;99267.00;;;20.90
68012;BMP180;54794;48.348;7.878;2022-09-11T00:16:39;99270.00;;;20.90
68012;BMP180;54794;48.348;7.878;2022-09-11T00:19:15;99274.00;;;20.90
68012;BMP180;54794;48.348;7.878;2022-09-11T00:21:43;99260.00;;;20.90
68012;BMP180;54794;48.348;7.878;2022-09-11T00:24:11;99257.00;;;20.90
68012;BMP180;54794;48.348;7.878;2022-09-11T00:26:38;99255.00;;;20.90
68012;BMP180;54794;48.348;7.878;2022-09-11T00:29:08;99258.00;;;20.90
68012;BMP180;54794;48.348;7.878;2022-09-11T00:31:35;99256.00;;;20.80
68012;BMP180;54794;48.348;7.878;2022-09-11T00:34:02;99261.00;;;20.80
68012;BMP180;54794;48.348;7.878;2022-09-11T00:36:30;99253.00;;;20.90
68012;BMP180;54794;48.348;7.878;2022-09-11T00:38:58;99253.00;;;20.90
68012;BMP180;54794;48.348;7.878;2022-09-11T00:41:34;99258.00;;;20.90
68012;BMP180;54794;48.348;7.878;2022-09-11T00:46:43;99256.00;;;20.80
68012;BMP180;54794;48.348;7.878;2022-09-11T00:52:26;99245.00;;;20.80
68012;BMP180;54794;48.348;7.878;2022-09-11T00:55:06;99257.00;;;20.80
68012;BMP180;54794;48.348;7.878;2022-09-11T00:57:47;99251.00;;;20.80
68012;BMP180;54794;48.348;7.878;2022-09-11T01:00:15;99256.00;;;20.80
68012;BMP180;54794;48.348;7.878;2022-09-11T01:02:47;99257.00;;;20.80
68012;BMP180;54794;48.348;7.878;2022-09-11T01:05:16;99258.00;;;20.80
68012;BMP180;54794;48.348;7.878;2022-09-11T01:07:45;99232.00;;;20.80
68012;BMP180;54794;48.348;7.878;2022-09-11T01:10:13;99248.00;;;20.80
68012;BMP180;54794;48.348;7.878;2022-09-11T01:13:07;99242.00;;;20.80
68012;BMP180;54794;48.348;7.878;2022-09-11T01:16:02;99259.00;;;20.80
68012;BMP180;54794;48.348;7.878;2022-09-11T01:18:51;99261.00;;;20.80
68012;BMP180;54794;48.348;7.878;2022-09-11T01:21:57;99262.00;;;20.80
68012;BMP180;54794;48.348;7.878;2022-09-11T01:25:06;99263.00;;;20.70
68012;BMP180;54794;48.348;7.878;2022-09-11T01:27:50;99259.00;;;20.70
68012;BMP180;54794;48.348;7.878;2022-09-11T01:30:34;99258.00;;;20.70
68012;BMP180;54794;48.348;7.878;2022-09-11T01:36:02;99254.00;;;20.70
68012;BMP180;54794;48.348;7.878;2022-09-11T01:38:51;99248.00;;;20.70
68012;BMP180;54794;48.348;7.878;2022-09-11T01:41:39;99249.00;;;20.70
68012;BMP180;54794;48.348;7.878;2022-09-11T01:46:47;99238.00;;;20.70
68012;BMP180;54794;48.348;7.878;2022-09-11T01:49:21;99246.00;;;20.70
68012;BMP180;54794;48.348;7.878;2022-09-11T01:51:55;99250.00;;;20.70
68012;BMP180;54794;48.348;7.878;2022-09-11T01:54:32;99220.00;;;20.70
68012;BMP180;54794;48.348;7.878;2022-09-11T01:57:11;99258.00;;;20.70
68012;BMP180;54794;48.348;7.878;2022-09-11T01:59:52;99262.00;;;20.70
68012;BMP180;54794;48.348;7.878;2022-09-11T02:02:24;99264.00;;;20.70
68012;BMP180;54794;48.348;7.878;2022-09-11T02:05:08;99266.00;;;20.70
68012;BMP180;54794;48.348;7.878;2022-09-11T02:07:51;99261.00;;;20.70
68012;BMP180;54794;48.348;7.878;2022-09-11T02:10:28;99262.00;;;20.70
68012;BMP180;54794;48.348;7.878;2022-09-11T02:13:35;99255.00;;;20.70
68012;BMP180;54794;48.348;7.878;2022-09-11T02:16:51;99254.00;;;20.70
68012;BMP180;54794;48.348;7.878;2022-09-11T02:19:15;99256.00;;;20.70
68012;BMP180;54794;48.348;7.878;2022-09-11T02:21:44;99250.00;;;20.70
68012;BMP180;54794;48.348;7.878;2022-09-11T02:24:11;99259.00;;;20.70
68012;BMP180;54794;48.348;7.878;2022-09-11T02:26:45;99256.00;;;20.70
68012;BMP180;54794;48.348;7.878;2022-09-11T02:29:14;99254.00;;;20.70
68012;BMP180;54794;48.348;7.878;2022-09-11T02:31:42;99249.00;;;20.70
68012;BMP180;54794;48.348;7.878;2022-09-11T02:34:11;99254.00;;;20.70
68012;BMP180;54794;48.348;7.878;2022-09-11T02:40:13;99255.00;;;20.70
68012;BMP180;54794;48.348;7.878;2022-09-11T02:57:16;99255.00;;;20.70
68012;BMP180;54794;48.348;7.878;2022-09-11T02:59:57;99249.00;;;20.70
68012;BMP180;54794;48.348;7.878;2022-09-11T03:02:37;99246.00;;;20.70
68012;BMP180;54794;48.348;7.878;2022-09-11T03:05:07;99247.00;;;20.70
68012;BMP180;54794;48.348;7.878;2022-09-11T03:07:34;99242.00;;;20.70
68012;BMP180;54794;48.348;7.878;2022-09-11T03:10:01;99236.00;;;20.70
68012;BMP180;54794;48.348;7.878;2022-09-11T03:12:28;99240.00;;;20.70
68012;BMP180;54794;48.348;7.878;2022-09-11T03:14:55;99223.00;;;20.70
68012;BMP180;54794;48.348;7.878;2022-09-11T03:17:23;99223.00;;;20.60
68012;BMP180;54794;48.348;7.878;2022-09-11T03:19:50;99235.00;;;20.70
68012;BMP180;54794;48.348;7.878;2022-09-11T03:22:18;99245.00;;;20.70
68012;BMP180;54794;48.348;7.878;2022-09-11T03:24:45;99235.00;;;20.70
68012;BMP180;54794;48.348;7.878;2022-09-11T03:27:11;99248.00;;;20.70
68012;BMP180;54794;48.348;7.878;2022-09-11T03:29:38;99242.00;;;20.70
68012;BMP180;54794;48.348;7.878;2022-09-11T03:32:06;99247.00;;;20.70
68012;BMP180;54794;48.348;7.878;2022-09-11T03:34:33;99250.00;;;20.70
68012;BMP180;54794;48.348;7.878;2022-09-11T03:37:00;99244.00;;;20.70
68012;BMP180;54794;48.348;7.878;2022-09-11T03:39:27;99233.00;;;20.70
68012;BMP180;54794;48.348;7.878;2022-09-11T03:41:54;99225.00;;;20.60
68012;BMP180;54794;48.348;7.878;2022-09-11T03:44:21;99249.00;;;20.60
68012;BMP180;54794;48.348;7.878;2022-09-11T03:46:48;99244.00;;;20.70
68012;BMP180;54794;48.348;7.878;2022-09-11T03:49:15;99239.00;;;20.70
68012;BMP180;54794;48.348;7.878;2022-09-11T03:51:42;99241.00;;;20.70
68012;BMP180;54794;48.348;7.878;2022-09-11T03:54:09;99244.00;;;20.70
68012;BMP180;54794;48.348;7.878;2022-09-11T03:56:36;99242.00;;;20.70
68012;BMP180;54794;48.348;7.878;2022-09-11T03:59:03;99233.00;;;20.70
68012;BMP180;54794;48.348;7.878;2022-09-11T04:01:30;99254.00;;;20.70
68012;BMP180;54794;48.348;7.878;2022-09-11T04:03:57;99260.00;;;20.70
68012;BMP180;54794;48.348;7.878;2022-09-11T04:06:24;99248.00;;;20.60
68012;BMP180;54794;48.348;7.878;2022-09-11T04:08:51;99260.00;;;20.60
68012;BMP180;54794;48.348;7.878;2022-09-11T04:11:17;99245.00;;;20.60
68012;BMP180;54794;48.348;7.878;2022-09-11T04:13:44;99249.00;;;20.60
68012;BMP180;54794;48.348;7.878;2022-09-11T04:16:18;99268.00;;;20.60
68012;BMP180;54794;48.348;7.878;2022-09-11T04:18:46;99254.00;;;20.60
68012;BMP180;54794;48.348;7.878;2022-09-11T04:21:14;99245.00;;;20.50
68012;BMP180;54794;48.348;7.878;2022-09-11T04:23:42;99256.00;;;20.50
68012;BMP180;54794;48.348;7.878;2022-09-11T04:26:23;99250.00;;;20.50
68012;BMP180;54794;48.348;7.878;2022-09-11T04:28:50;99270.00;;;20.50
68012;BMP180;54794;48.348;7.878;2022-09-11T04:31:19;99269.00;;;20.50
68012;BMP180;54794;48.348;7.878;2022-09-11T04:33:46;99264.00;;;20.50
68012;BMP180;54794;48.348;7.878;2022-09-11T04:36:16;99270.00;;;20.50
68012;BMP180;54794;48.348;7.878;2022-09-11T04:38:45;99262.00;;;20.50
68012;BMP180;54794;48.348;7.878;2022-09-11T04:41:14;99278.00;;;20.50
68012;BMP180;54794;48.348;7.878;2022-09-11T04:43:41;99273.00;;;20.50
68012;BMP180;54794;48.348;7.878;2022-09-11T04:46:13;99282.00;;;20.50
68012;BMP180;54794;48.348;7.878;2022-09-11T04:48:51;99290.00;;;20.50
68012;BMP180;54794;48.348;7.878;2022-09-11T04:51:31;99293.00;;;20.50
68012;BMP180;54794;48.348;7.878;2022-09-11T04:54:00;99284.00;;;20.50
68012;BMP180;54794;48.348;7.878;2022-09-11T04:56:33;99282.00;;;20.50
68012;BMP180;54794;48.348;7.878;2022-09-11T04:59:04;99299.00;;;20.50
68012;BMP180;54794;48.348;7.878;2022-09-11T05:01:32;99293.00;;;20.50
68012;BMP180;54794;48.348;7.878;2022-09-11T05:04:00;99294.00;;;20.50
68012;BMP180;54794;48.348;7.878;2022-09-11T05:06:28;99314.00;;;20.50
68012;BMP180;54794;48.348;7.878;2022-09-11T05:09:01;99306.00;;;20.50
68012;BMP180;54794;48.348;7.878;2022-09-11T05:11:29;99300.00;;;20.50
68012;BMP180;54794;48.348;7.878;2022-09-11T05:13:56;99329.00;;;20.50
68012;BMP180;54794;48.348;7.878;2022-09-11T05:16:28;99330.00;;;20.50
68012;BMP180;54794;48.348;7.878;2022-09-11T05:18:56;99324.00;;;20.50
68012;BMP180;54794;48.348;7.878;2022-09-11T05:21:26;99331.00;;;20.50
68012;BMP180;54794;48.348;7.878;2022-09-11T05:23:56;99335.00;;;20.60
68012;BMP180;54794;48.348;7.878;2022-09-11T05:26:30;99330.00;;;20.50
68012;BMP180;54794;48.348;7.878;2022-09-11T05:29:11;99328.00;;;20.50
68012;BMP180;54794;48.348;7.878;2022-09-11T05:31:38;99328.00;;;20.60
68012;BMP180;54794;48.348;7.878;2022-09-11T05:34:06;99331.00;;;20.60
68012;BMP180;54794;48.348;7.878;2022-09-11T05:36:34;99340.00;;;20.60
68012;BMP180;54794;48.348;7.878;2022-09-11T05:39:02;99338.00;;;20.60
68012;BMP180;54794;48.348;7.878;2022-09-11T05:41:29;99337.00;;;20.60
68012;BMP180;54794;48.348;7.878;2022-09-11T05:43:57;99343.00;;;20.60
68012;BMP180;54794;48.348;7.878;2022-09-11T05:46:24;99335.00;;;20.60
68012;BMP180;54794;48.348;7.878;2022-09-11T05:48:51;99346.00;;;20.60
68012;BMP180;54794;48.348;7.878;2022-09-11T05:51:20;99354.00;;;20.60
68012;BMP180;54794;48.348;7.878;2022-09-11T05:53:52;99357.00;;;20.60
68012;BMP180;54794;48.348;7.878;2022-09-11T05:56:22;99360.00;;;20.60
68012;BMP180;54794;48.348;7.878;2022-09-11T05:58:50;99349.00;;;20.60
68012;BMP180;54794;48.348;7.878;2022-09-11T06:01:21;99357.00;;;20.70
68012;BMP180;54794;48.348;7.878;2022-09-11T06:03:49;99350.00;;;20.60
68012;BMP180;54794;48.348;7.878;2022-09-11T06:06:18;99356.00;;;20.70
68012;BMP180;54794;48.348;7.878;2022-09-11T06:08:46;99362.00;;;20.70
68012;BMP180;54794;48.348;7.878;2022-09-11T06:11:17;99369.00;;;20.70
68012;BMP180;54794;48.348;7.878;2022-09-11T06:13:45;99378.00;;;20.70
68012;BMP180;54794;48.348;7.878;2022-09-11T06:16:21;99371.00;;;20.70
68012;BMP180;54794;48.348;7.878;2022-09-11T06:18:51;99374.00;;;20.70
68012;BMP180;54794;48.348;7.878;2022-09-11T06:21:22;99383.00;;;20.70
68012;BMP180;54794;48.348;7.878;2022-09-11T06:23:51;99365.00;;;20.70
68012;BMP180;54794;48.348;7.878;2022-09-11T06:26:22;99391.00;;;20.80
68012;BMP180;54794;48.348;7.878;2022-09-11T06:28:51;99378.00;;;20.80
68012;BMP180;54794;48.348;7.878;2022-09-11T06:31:21;99385.00;;;20.70
68012;BMP180;54794;48.348;7.878;2022-09-11T06:33:48;99376.00;;;20.80
68012;BMP180;54794;48.348;7.878;2022-09-11T06:36:19;99385.00;;;20.80
68012;BMP180;54794;48.348;7.878;2022-09-11T06:38:55;99386.00;;;20.90
68012;BMP180;54794;48.348;7.878;2022-09-11T06:41:26;99386.00;;;20.90
68012;BMP180;54794;48.348;7.878;2022-09-11T06:43:53;99386.00;;;21.00
68012;BMP180;54794;48.348;7.878;2022-09-11T06:46:22;99388.00;;;21.00
68012;BMP180;54794;48.348;7.878;2022-09-11T06:48:51;99385.00;;;21.00
68012;BMP180;54794;48.348;7.878;2022-09-11T06:51:19;99390.00;;;21.10
68012;BMP180;54794;48.348;7.878;2022-09-11T06:53:47;99380.00;;;21.10
68012;BMP180;54794;48.348;7.878;2022-09-11T06:56:17;99394.00;;;21.10
68012;BMP180;54794;48.348;7.878;2022-09-11T06:58:45;99381.00;;;21.20
68012;BMP180;54794;48.348;7.878;2022-09-11T07:01:15;99385.00;;;21.20
68012;BMP180;54794;48.348;7.878;2022-09-11T07:03:45;99395.00;;;21.30
68012;BMP180;54794;48.348;7.878;2022-09-11T07:06:15;99397.00;;;21.30
68012;BMP180;54794;48.348;7.878;2022-09-11T07:08:42;99400.00;;;21.30
68012;BMP180;54794;48.348;7.878;2022-09-11T07:11:10;99378.00;;;21.40
68012;BMP180;54794;48.348;7.878;2022-09-11T07:13:38;99379.00;;;21.40
68012;BMP180;54794;48.348;7.878;2022-09-11T07:16:07;99400.00;;;21.40
68012;BMP180;54794;48.348;7.878;2022-09-11T07:18:37;99391.00;;;21.50
68012;BMP180;54794;48.348;7.878;2022-09-11T07:21:14;99388.00;;;21.60
68012;BMP180;54794;48.348;7.878;2022-09-11T07:23:50;99377.00;;;21.50
68012;BMP180;54794;48.348;7.878;2022-09-11T07:26:17;99407.00;;;21.60
68012;BMP180;54794;48.348;7.878;2022-09-11T07:28:45;99389.00;;;21.60
68012;BMP180;54794;48.348;7.878;2022-09-11T07:31:21;99399.00;;;21.70
68012;BMP180;54794;48.348;7.878;2022-09-11T07:33:51;99407.00;;;21.80
68012;BMP180;54794;48.348;7.878;2022-09-11T07:36:23;99403.00;;;21.80
68012;BMP180;54794;48.348;7.878;2022-09-11T07:38:51;99385.00;;;21.80
68012;BMP180;54794;48.348;7.878;2022-09-11T07:41:22;99413.00;;;21.90
68012;BMP180;54794;48.348;7.878;2022-09-11T07:43:54;99403.00;;;22.00
68012;BMP180;54794;48.348;7.878;2022-09-11T07:46:22;99419.00;;;22.00
68012;BMP180;54794;48.348;7.878;2022-09-11T07:48:51;99401.00;;;22.00
68012;BMP180;54794;48.348;7.878;2022-09-11T07:51:19;99402.00;;;22.10
68012;BMP180;54794;48.348;7.878;2022-09-11T07:53:51;99421.00;;;22.10
68012;BMP180;54794;48.348;7.878;2022-09-11T07:56:23;99402.00;;;22.20
68012;BMP180;54794;48.348;7.878;2022-09-11T07:58:53;99418.00;;;22.20
68012;BMP180;54794;48.348;7.878;2022-09-11T08:01:26;99393.00;;;22.30
68012;BMP180;54794;48.348;7.878;2022-09-11T08:04:03;99420.00;;;22.30
68012;BMP180;54794;48.348;7.878;2022-09-11T08:06:34;99423.00;;;22.30
68012;BMP180;54794;48.348;7.878;2022-09-11T08:09:06;99430.00;;;22.30
68012;BMP180;54794;48.348;7.878;2022-09-11T08:11:40;99431.00;;;22.40
68012;BMP180;54794;48.348;7.878;2022-09-11T08:14:08;99429.00;;;22.40
68012;BMP180;54794;48.348;7.878;2022-09-11T08:16:37;99432.00;;;22.40
68012;BMP180;54794;48.348;7.878;2022-09-11T08:19:05;99444.00;;;22.50
68012;BMP180;54794;48.348;7.878;2022-09-11T08:21:32;99431.00;;;22.50
68012;BMP180;54794;48.348;7.878;2022-09-11T08:23:59;99430.00;;;22.50
68012;BMP180;54794;48.348;7.878;2022-09-11T08:26:31;99440.00;;;22.60
68012;BMP180;54794;48.348;7.878;2022-09-11T08:28:58;99425.00;;;22.60
68012;BMP180;54794;48.348;7.878;2022-09-11T08:31:26;99437.00;;;22.70
68012;BMP180;54794;48.348;7.878;2022-09-11T08:33:55;99434.00;;;22.70
68012;BMP180;54794;48.348;7.878;2022-09-11T08:36:23;99440.00;;;22.80
68012;BMP180;54794;48.348;7.878;2022-09-11T08:38:50;99437.00;;;22.80
68012;BMP180;54794;48.348;7.878;2022-09-11T08:41:50;99427.00;;;22.90
68012;BMP180;54794;48.348;7.878;2022-09-11T08:47:19;99434.00;;;23.00
68012;BMP180;54794;48.348;7.878;2022-09-11T08:50:07;99444.00;;;23.00
68012;BMP180;54794;48.348;7.878;2022-09-11T08:52:43;99436.00;;;23.00
68012;BMP180;54794;48.348;7.878;2022-09-11T08:55:22;99444.00;;;23.10
68012;BMP180;54794;48.348;7.878;2022-09-11T08:58:26;99438.00;;;23.10
68012;BMP180;54794;48.348;7.878;2022-09-11T09:07:46;99434.00;;;23.20
68012;BMP180;54794;48.348;7.878;2022-09-11T09:19:09;99439.00;;;23.60
68012;BMP180;54794;48.348;7.878;2022-09-11T09:21:53;99445.00;;;23.60
68012;BMP180;54794;48.348;7.878;2022-09-11T09:24:31;99449.00;;;23.70
68012;BMP180;54794;48.348;7.878;2022-09-11T09:27:02;99456.00;;;23.70
68012;BMP180;54794;48.348;7.878;2022-09-11T09:29:36;99452.00;;;23.80
68012;BMP180;54794;48.348;7.878;2022-09-11T09:32:11;99451.00;;;23.90
68012;BMP180;54794;48.348;7.878;2022-09-11T09:34:43;99447.00;;;23.90
68012;BMP180;54794;48.348;7.878;2022-09-11T09:37:21;99446.00;;;23.90
68012;BMP180;54794;48.348;7.878;2022-09-11T09:39:49;99436.00;;;24.00
68012;BMP180;54794;48.348;7.878;2022-09-11T09:45:33;99438.00;;;24.10
68012;BMP180;54794;48.348;7.878;2022-09-11T09:48:04;99437.00;;;24.20
68012;BMP180;54794;48.348;7.878;2022-09-11T09:50:37;99432.00;;;24.20
68012;BMP180;54794;48.348;7.878;2022-09-11T09:55:59;99441.00;;;24.40
68012;BMP180;54794;48.348;7.878;2022-09-11T09:58:57;99412.00;;;24.50
68012;BMP180;54794;48.348;7.878;2022-09-11T10:01:42;99422.00;;;24.70
68012;BMP180;54794;48.348;7.878;2022-09-11T10:04:24;99425.00;;;24.90
68012;BMP180;54794;48.348;7.878;2022-09-11T10:07:05;99427.00;;;25.00
68012;BMP180;54794;48.348;7.878;2022-09-11T10:09:34;99431.00;;;25.10
68012;BMP180;54794;48.348;7.878;2022-09-11T10:12:04;99422.00;;;25.20
68012;BMP180;54794;48.348;7.878;2022-09-11T10:14:48;99419.00;;;25.30
68012;BMP180;54794;48.348;7.878;2022-09-11T10:22:41;99416.00;;;25.60
68012;BMP180;54794;48.348;7.878;2022-09-11T10:28:00;99421.00;;;25.70
68012;BMP180;54794;48.348;7.878;2022-09-11T10:30:35;99393.00;;;25.80
68012;BMP180;54794;48.348;7.878;2022-09-11T10:33:21;99408.00;;;25.90
68012;BMP180;54794;48.348;7.878;2022-09-11T10:35:54;99394.00;;;26.00
68012;BMP180;54794;48.348;7.878;2022-09-11T10:38:33;99396.00;;;26.00
68012;BMP180;54794;48.348;7.878;2022-09-11T10:44:10;99415.00;;;26.10
68012;BMP180;54794;48.348;7.878;2022-09-11T10:46:41;99418.00;;;26.10
68012;BMP180;54794;48.348;7.878;2022-09-11T10:49:17;99399.00;;;26.20
68012;BMP180;54794;48.348;7.878;2022-09-11T10:54:59;99416.00;;;26.30
68012;BMP180;54794;48.348;7.878;2022-09-11T10:57:42;99418.00;;;26.30
68012;BMP180;54794;48.348;7.878;2022-09-11T11:02:54;99413.00;;;26.50
68012;BMP180;54794;48.348;7.878;2022-09-11T11:13:45;99400.00;;;26.70
68012;BMP180;54794;48.348;7.878;2022-09-11T11:23:04;99392.00;;;27.00
68012;BMP180;54794;48.348;7.878;2022-09-11T11:26:04;99402.00;;;27.00
68012;BMP180;54794;48.348;7.878;2022-09-11T11:29:09;99403.00;;;27.10
68012;BMP180;54794;48.348;7.878;2022-09-11T11:38:52;99405.00;;;27.20
68012;BMP180;54794;48.348;7.878;2022-09-11T11:45:08;99397.00;;;27.30
68012;BMP180;54794;48.348;7.878;2022-09-11T11:47:40;99381.00;;;27.40
68012;BMP180;54794;48.348;7.878;2022-09-11T11:50:59;99387.00;;;27.50
68012;BMP180;54794;48.348;7.878;2022-09-11T11:53:21;99387.00;;;27.60
68012;BMP180;54794;48.348;7.878;2022-09-11T11:59:11;99375.00;;;27.60
68012;BMP180;54794;48.348;7.878;2022-09-11T12:01:47;99376.00;;;27.70
68012;BMP180;54794;48.348;7.878;2022-09-11T12:07:14;99382.00;;;27.80
68012;BMP180;54794;48.348;7.878;2022-09-11T12:09:48;99383.00;;;27.80
68012;BMP180;54794;48.348;7.878;2022-09-11T12:12:17;99385.00;;;27.80
68012;BMP180;54794;48.348;7.878;2022-09-11T12:15:03;99380.00;;;27.80
68012;BMP180;54794;48.348;7.878;2022-09-11T12:17:33;99376.00;;;27.90
68012;BMP180;54794;48.348;7.878;2022-09-11T12:22:48;99389.00;;;28.10
68012;BMP180;54794;48.348;7.878;2022-09-11T12:35:26;99376.00;;;28.60
68012;BMP180;54794;48.348;7.878;2022-09-11T12:38:11;99374.00;;;28.70
68012;BMP180;54794;48.348;7.878;2022-09-11T12:40:58;99368.00;;;28.80
68012;BMP180;54794;48.348;7.878;2022-09-11T12:46:09;99372.00;;;29.10
68012;BMP180;54794;48.348;7.878;2022-09-11T12:48:46;99365.00;;;29.20
68012;BMP180;54794;48.348;7.878;2022-09-11T12:51:38;99352.00;;;29.30
68012;BMP180;54794;48.348;7.878;2022-09-11T12:57:24;99359.00;;;29.40
68012;BMP180;54794;48.348;7.878;2022-09-11T13:00:02;99358.00;;;29.50
68012;BMP180;54794;48.348;7.878;2022-09-11T13:02:51;99359.00;;;29.50
68012;BMP180;54794;48.348;7.878;2022-09-11T13:05:31;99355.00;;;29.60
68012;BMP180;54794;48.348;7.878;2022-09-11T13:08:28;99345.00;;;29.70
68012;BMP180;54794;48.348;7.878;2022-09-11T13:14:00;99347.00;;;29.80
68012;BMP180;54794;48.348;7.878;2022-09-11T13:16:31;99345.00;;;29.80
68012;BMP180;54794;48.348;7.878;2022-09-11T13:19:14;99344.00;;;29.90
68012;BMP180;54794;48.348;7.878;2022-09-11T13:21:43;99342.00;;;29.90
68012;BMP180;54794;48.348;7.878;2022-09-11T13:24:25;99334.00;;;30.00
68012;BMP180;54794;48.348;7.878;2022-09-11T13:26:55;99338.00;;;30.10
68012;BMP180;54794;48.348;7.878;2022-09-11T13:29:28;99328.00;;;30.20
68012;BMP180;54794;48.348;7.878;2022-09-11T13:31:58;99334.00;;;30.20
68012;BMP180;54794;48.348;7.878;2022-09-11T13:34:28;99331.00;;;30.30
68012;BMP180;54794;48.348;7.878;2022-09-11T13:36:57;99326.00;;;30.40
68012;BMP180;54794;48.348;7.878;2022-09-11T13:39:26;99320.00;;;30.40
68012;BMP180;54794;48.348;7.878;2022-09-11T13:42:01;99319.00;;;30.50
68012;BMP180;54794;48.348;7.878;2022-09-11T13:44:50;99316.00;;;30.60
68012;BMP180;54794;48.348;7.878;2022-09-11T13:47:24;99313.00;;;30.70
68012;BMP180;54794;48.348;7.878;2022-09-11T13:50:02;99294.00;;;30.70
68012;BMP180;54794;48.348;7.878;2022-09-11T13:52:32;99311.00;;;30.80
68012;BMP180;54794;48.348;7.878;2022-09-11T13:55:13;99300.00;;;30.80
68012;BMP180;54794;48.348;7.878;2022-09-11T13:58:02;99293.00;;;30.80
68012;BMP180;54794;48.348;7.878;2022-09-11T14:00:47;99290.00;;;30.80
68012;BMP180;54794;48.348;7.878;2022-09-11T14:03:26;99287.00;;;30.90
68012;BMP180;54794;48.348;7.878;2022-09-11T14:05:58;99273.00;;;30.80
68012;BMP180;54794;48.348;7.878;2022-09-11T14:08:38;99275.00;;;30.90
68012;BMP180;54794;48.348;7.878;2022-09-11T14:11:10;99269.00;;;30.90
68012;BMP180;54794;48.348;7.878;2022-09-11T14:16:33;99253.00;;;31.00
68012;BMP180;54794;48.348;7.878;2022-09-11T14:19:17;99261.00;;;30.90
68012;BMP180;54794;48.348;7.878;2022-09-11T14:21:47;99268.00;;;30.90
68012;BMP180;54794;48.348;7.878;2022-09-11T14:29:56;99251.00;;;31.10
68012;BMP180;54794;48.348;7.878;2022-09-11T14:32:36;99248.00;;;31.20
68012;BMP180;54794;48.348;7.878;2022-09-11T14:35:08;99253.00;;;31.20
68012;BMP180;54794;48.348;7.878;2022-09-11T14:37:43;99250.00;;;31.30
68012;BMP180;54794;48.348;7.878;2022-09-11T14:40:17;99250.00;;;31.30
68012;BMP180;54794;48.348;7.878;2022-09-11T14:42:45;99246.00;;;31.30
68012;BMP180;54794;48.348;7.878;2022-09-11T14:45:20;99250.00;;;31.30
68012;BMP180;54794;48.348;7.878;2022-09-11T14:47:48;99249.00;;;31.30
68012;BMP180;54794;48.348;7.878;2022-09-11T14:50:16;99240.00;;;31.40
68012;BMP180;54794;48.348;7.878;2022-09-11T14:52:42;99252.00;;;31.30
68012;BMP180;54794;48.348;7.878;2022-09-11T14:55:15;99244.00;;;31.40
68012;BMP180;54794;48.348;7.878;2022-09-11T14:57:42;99238.00;;;31.40
68012;BMP180;54794;48.348;7.878;2022-09-11T15:00:16;99233.00;;;31.40
68012;BMP180;54794;48.348;7.878;2022-09-11T15:02:43;99235.00;;;31.40
68012;BMP180;54794;48.348;7.878;2022-09-11T15:05:19;99245.00;;;31.50
68012;BMP180;54794;48.348;7.878;2022-09-11T15:07:48;99232.00;;;31.50
68012;BMP180;54794;48.348;7.878;2022-09-11T15:10:15;99232.00;;;31.40
68012;BMP180;54794;48.348;7.878;2022-09-11T15:12:42;99230.00;;;31.40
68012;BMP180;54794;48.348;7.878;2022-09-11T15:15:10;99226.00;;;31.40
68012;BMP180;54794;48.348;7.878;2022-09-11T15:17:37;99229.00;;;31.40
68012;BMP180;54794;48.348;7.878;2022-09-11T15:20:05;99230.00;;;31.30
68012;BMP180;54794;48.348;7.878;2022-09-11T15:22:35;99223.00;;;31.30
68012;BMP180;54794;48.348;7.878;2022-09-11T15:25:03;99218.00;;;31.30
68012;BMP180;54794;48.348;7.878;2022-09-11T15:27:31;99218.00;;;31.30
68012;BMP180;54794;48.348;7.878;2022-09-11T15:29:58;99217.00;;;31.30
68012;BMP180;54794;48.348;7.878;2022-09-11T15:32:26;99217.00;;;31.30
68012;BMP180;54794;48.348;7.878;2022-09-11T15:34:53;99209.00;;;31.30
68012;BMP180;54794;48.348;7.878;2022-09-11T15:37:21;99193.00;;;31.20
68012;BMP180;54794;48.348;7.878;2022-09-11T15:39:49;99199.00;;;31.20
68012;BMP180;54794;48.348;7.878;2022-09-11T15:42:17;99209.00;;;31.20
68012;BMP180;54794;48.348;7.878;2022-09-11T15:44:44;99204.00;;;31.10
68012;BMP180;54794;48.348;7.878;2022-09-11T15:47:12;99207.00;;;31.10
68012;BMP180;54794;48.348;7.878;2022-09-11T15:49:41;99212.00;;;31.10
68012;BMP180;54794;48.348;7.878;2022-09-11T15:52:10;99210.00;;;31.10
68012;BMP180;54794;48.348;7.878;2022-09-11T15:54:37;99208.00;;;31.10
68012;BMP180;54794;48.348;7.878;2022-09-11T15:57:04;99212.00;;;31.00
68012;BMP180;54794;48.348;7.878;2022-09-11T15:59:31;99207.00;;;31.00
68012;BMP180;54794;48.348;7.878;2022-09-11T16:01:59;99200.00;;;31.00
68012;BMP180;54794;48.348;7.878;2022-09-11T16:04:28;99198.00;;;31.00
68012;BMP180;54794;48.348;7.878;2022-09-11T16:06:58;99194.00;;;31.00
68012;BMP180;54794;48.348;7.878;2022-09-11T16:09:27;99194.00;;;30.90
68012;BMP180;54794;48.348;7.878;2022-09-11T16:11:55;99204.00;;;30.90
68012;BMP180;54794;48.348;7.878;2022-09-11T16:14:29;99207.00;;;30.90
68012;BMP180;54794;48.348;7.878;2022-09-11T16:16:59;99204.00;;;30.90
68012;BMP180;54794;48.348;7.878;2022-09-11T16:19:29;99202.00;;;30.80
68012;BMP180;54794;48.348;7.878;2022-09-11T16:21:59;99204.00;;;30.80
68012;BMP180;54794;48.348;7.878;2022-09-11T16:24:29;99195.00;;;30.80
68012;BMP180;54794;48.348;7.878;2022-09-11T16:26:57;99197.00;;;30.70
68012;BMP180;54794;48.348;7.878;2022-09-11T16:29:26;99186.00;;;30.70
68012;BMP180;54794;48.348;7.878;2022-09-11T16:32:16;99198.00;;;30.60
68012;BMP180;54794;48.348;7.878;2022-09-11T16:34:56;99196.00;;;30.60
68012;BMP180;54794;48.348;7.878;2022-09-11T16:37:24;99186.00;;;30.50
68012;BMP180;54794;48.348;7.878;2022-09-11T16:39:51;99192.00;;;30.50
68012;BMP180;54794;48.348;7.878;2022-09-11T16:42:18;99196.00;;;30.40
68012;BMP180;54794;48.348;7.878;2022-09-11T16:44:48;99198.00;;;30.30
68012;BMP180;54794;48.348;7.878;2022-09-11T16:47:16;99196.00;;;30.20
68012;BMP180;54794;48.348;7.878;2022-09-11T16:49:43;99194.00;;;30.10
68012;BMP180;54794;48.348;7.878;2022-09-11T16:52:31;99191.00;;;30.00
68012;BMP180;54794;48.348;7.878;2022-09-11T16:54:58;99200.00;;;29.90